sensor_id;sensor_type;location;lat;lon;timestamp;temperature;humidity
2565;DHT22;1292;48.020;7.822;2023-08-07T05:45:21;14.70;99.90
2565;DHT22;1292;48.020;7.822;2023-08-07T05:47:48;14.60;99.90
2565;DHT22;1292;48.020;7.822;2023-08-07T05:50:15;14.70;99.90
2565;DHT22;1292;48.020;7.822;2023-08-07T05:52:42;14.70;99.90
2565;DHT22;1292;48.020;7.822;2023-08-07T05:55:09;14.70;99.90
2565;DHT22;1292;48.020;7.822;2023-08-07T05:57:35;14.70;99.90
2565;DHT22;1292;48.020;7.822;2023-08-07T06:00:03;14.80;99.90
2565;DHT22;1292;48.020;7.822;2023-08-07T06:02:31;14.80;99.90
2565;DHT22;1292;48.020;7.822;2023-08-07T06:04:58;14.70;99.90
2565;DHT22;1292;48.020;7.822;2023-08-07T06:07:25;14.80;99.90
2565;DHT22;1292;48.020;7.822;2023-08-07T06:09:52;14.80;99.90
2565;DHT22;1292;48.020;7.822;2023-08-07T06:12:19;14.70;99.90
2565;DHT22;1292;48.020;7.822;2023-08-07T06:14:46;14.70;99.90
2565;DHT22;1292;48.020;7.822;2023-08-07T06:17:13;14.80;99.90
2565;DHT22;1292;48.020;7.822;2023-08-07T06:19:41;14.90;99.90
2565;DHT22;1292;48.020;7.822;2023-08-07T06:22:07;14.90;99.90
2565;DHT22;1292;48.020;7.822;2023-08-07T06:24:34;14.90;99.90
2565;DHT22;1292;48.020;7.822;2023-08-07T06:27:02;15.00;99.90
2565;DHT22;1292;48.020;7.822;2023-08-07T06:29:29;15.00;99.90
2565;DHT22;1292;48.020;7.822;2023-08-07T06:31:56;15.00;99.90
2565;DHT22;1292;48.020;7.822;2023-08-07T06:34:22;15.00;99.90
2565;DHT22;1292;48.020;7.822;2023-08-07T06:36:51;15.00;99.90
2565;DHT22;1292;48.020;7.822;2023-08-07T06:39:18;14.90;99.90
2565;DHT22;1292;48.020;7.822;2023-08-07T06:41:44;14.90;99.90
2565;DHT22;1292;48.020;7.822;2023-08-07T06:44:11;14.90;99.90
2565;DHT22;1292;48.020;7.822;2023-08-07T06:46:38;14.90;99.90
2565;DHT22;1292;48.020;7.822;2023-08-07T06:49:05;14.90;99.90
2565;DHT22;1292;48.020;7.822;2023-08-07T06:51:32;15.00;99.90
2565;DHT22;1292;48.020;7.822;2023-08-07T06:54:00;15.00;99.90
2565;DHT22;1292;48.020;7.822;2023-08-07T06:56:26;15.10;99.90
2565;DHT22;1292;48.020;7.822;2023-08-07T06:58:53;15.10;99.90
2565;DHT22;1292;48.020;7.822;2023-08-07T07:01:20;15.10;99.90
2565;DHT22;1292;48.020;7.822;2023-08-07T07:03:47;15.00;99.90
2565;DHT22;1292;48.020;7.822;2023-08-07T07:06:18;15.00;99.90
2565;DHT22;1292;48.020;7.822;2023-08-07T07:08:46;15.00;99.90
2565;DHT22;1292;48.020;7.822;2023-08-07T07:11:14;15.10;99.90
2565;DHT22;1292;48.020;7.822;2023-08-07T07:13:40;15.10;99.90
2565;DHT22;1292;48.020;7.822;2023-08-07T07:16:08;15.10;99.90
2565;DHT22;1292;48.020;7.822;2023-08-07T07:18:36;15.10;99.90
2565;DHT22;1292;48.020;7.822;2023-08-07T07:21:03;15.10;99.90
2565;DHT22;1292;48.020;7.822;2023-08-07T07:23:30;15.10;99.90
2565;DHT22;1292;48.020;7.822;2023-08-07T07:25:57;15.20;99.90
2565;DHT22;1292;48.020;7.822;2023-08-07T07:28:25;15.30;99.90
2565;DHT22;1292;48.020;7.822;2023-08-07T07:30:52;15.20;99.90
2565;DHT22;1292;48.020;7.822;2023-08-07T07:33:19;15.20;99.90
2565;DHT22;1292;48.020;7.822;2023-08-07T07:35:45;15.30;99.90
2565;DHT22;1292;48.020;7.822;2023-08-07T07:38:12;15.30;99.90
2565;DHT22;1292;48.020;7.822;2023-08-07T07:40:41;15.30;99.90
2565;DHT22;1292;48.020;7.822;2023-08-07T07:43:07;15.20;99.90
2565;DHT22;1292;48.020;7.822;2023-08-07T07:45:36;15.20;99.90
2565;DHT22;1292;48.020;7.822;2023-08-07T07:48:04;15.20;99.90
2565;DHT22;1292;48.020;7.822;2023-08-07T07:50:31;15.20;99.90
2565;DHT22;1292;48.020;7.822;2023-08-07T07:52:58;15.30;99.90
2565;DHT22;1292;48.020;7.822;2023-08-07T07:55:25;15.40;99.90
2565;DHT22;1292;48.020;7.822;2023-08-07T07:57:53;15.40;99.90
2565;DHT22;1292;48.020;7.822;2023-08-07T08:00:20;15.40;99.90
2565;DHT22;1292;48.020;7.822;2023-08-07T08:02:50;15.40;99.90
2565;DHT22;1292;48.020;7.822;2023-08-07T08:05:18;15.50;99.90
2565;DHT22;1292;48.020;7.822;2023-08-07T08:07:45;15.50;99.90
2565;DHT22;1292;48.020;7.822;2023-08-07T08:10:13;15.50;99.90
2565;DHT22;1292;48.020;7.822;2023-08-07T08:12:39;15.40;99.90
2565;DHT22;1292;48.020;7.822;2023-08-07T08:15:07;15.50;99.90
2565;DHT22;1292;48.020;7.822;2023-08-07T08:17:34;15.60;99.90
2565;DHT22;1292;48.020;7.822;2023-08-07T08:20:02;15.60;99.90
2565;DHT22;1292;48.020;7.822;2023-08-07T08:22:30;15.60;99.90
2565;DHT22;1292;48.020;7.822;2023-08-07T08:24:56;15.60;99.90
2565;DHT22;1292;48.020;7.822;2023-08-07T08:27:23;15.60;99.90
2565;DHT22;1292;48.020;7.822;2023-08-07T08:29:50;15.60;99.90
2565;DHT22;1292;48.020;7.822;2023-08-07T08:32:17;15.60;99.90
2565;DHT22;1292;48.020;7.822;2023-08-07T08:34:44;15.50;99.90
2565;DHT22;1292;48.020;7.822;2023-08-07T08:37:12;15.50;99.90
2565;DHT22;1292;48.020;7.822;2023-08-07T08:39:39;15.50;99.90
2565;DHT22;1292;48.020;7.822;2023-08-07T08:42:06;15.60;99.90
2565;DHT22;1292;48.020;7.822;2023-08-07T08:44:36;15.50;99.90
2565;DHT22;1292;48.020;7.822;2023-08-07T08:47:04;15.40;99.90
2565;DHT22;1292;48.020;7.822;2023-08-07T08:49:39;15.30;99.90
2565;DHT22;1292;48.020;7.822;2023-08-07T08:52:08;15.40;99.90
2565;DHT22;1292;48.020;7.822;2023-08-07T08:54:37;15.40;99.90
2565;DHT22;1292;48.020;7.822;2023-08-07T08:57:04;15.40;99.90
2565;DHT22;1292;48.020;7.822;2023-08-07T08:59:33;15.50;99.90
2565;DHT22;1292;48.020;7.822;2023-08-07T09:02:00;15.60;99.90
2565;DHT22;1292;48.020;7.822;2023-08-07T09:04:27;15.70;99.90
2565;DHT22;1292;48.020;7.822;2023-08-07T09:06:54;16.00;99.90
2565;DHT22;1292;48.020;7.822;2023-08-07T09:09:22;16.30;99.90
2565;DHT22;1292;48.020;7.822;2023-08-07T09:11:51;16.60;99.90
2565;DHT22;1292;48.020;7.822;2023-08-07T09:14:25;17.50;99.90
2565;DHT22;1292;48.020;7.822;2023-08-07T09:16:54;18.70;99.90
2565;DHT22;1292;48.020;7.822;2023-08-07T09:19:21;19.40;99.90
2565;DHT22;1292;48.020;7.822;2023-08-07T09:21:47;19.50;99.90
2565;DHT22;1292;48.020;7.822;2023-08-07T09:24:14;19.60;99.90
2565;DHT22;1292;48.020;7.822;2023-08-07T09:26:44;19.60;99.90
2565;DHT22;1292;48.020;7.822;2023-08-07T09:29:12;19.30;99.90
2565;DHT22;1292;48.020;7.822;2023-08-07T09:31:42;19.10;99.90
2565;DHT22;1292;48.020;7.822;2023-08-07T09:34:10;18.90;99.90
2565;DHT22;1292;48.020;7.822;2023-08-07T09:36:39;19.00;99.90
2565;DHT22;1292;48.020;7.822;2023-08-07T09:39:07;19.30;99.90
2565;DHT22;1292;48.020;7.822;2023-08-07T09:41:36;19.60;99.90
2565;DHT22;1292;48.020;7.822;2023-08-07T09:44:06;19.60;99.90
2565;DHT22;1292;48.020;7.822;2023-08-07T09:46:40;19.50;99.90
2565;DHT22;1292;48.020;7.822;2023-08-07T09:49:07;19.10;99.90
2565;DHT22;1292;48.020;7.822;2023-08-07T09:51:41;18.80;99.90
2565;DHT22;1292;48.020;7.822;2023-08-07T09:54:08;18.60;99.90
2565;DHT22;1292;48.020;7.822;2023-08-07T09:56:35;18.20;99.90
2565;DHT22;1292;48.020;7.822;2023-08-07T09:59:03;18.00;99.90
2565;DHT22;1292;48.020;7.822;2023-08-07T10:01:30;17.90;99.90
2565;DHT22;1292;48.020;7.822;2023-08-07T10:03:58;17.80;99.90
2565;DHT22;1292;48.020;7.822;2023-08-07T10:06:26;17.70;99.90
2565;DHT22;1292;48.020;7.822;2023-08-07T10:08:54;17.70;99.90
2565;DHT22;1292;48.020;7.822;2023-08-07T10:11:21;17.70;99.90
2565;DHT22;1292;48.020;7.822;2023-08-07T10:13:49;17.70;99.90
2565;DHT22;1292;48.020;7.822;2023-08-07T10:16:16;17.70;99.90
2565;DHT22;1292;48.020;7.822;2023-08-07T10:18:43;17.80;99.90
2565;DHT22;1292;48.020;7.822;2023-08-07T10:21:11;17.80;99.90
2565;DHT22;1292;48.020;7.822;2023-08-07T10:23:38;17.70;99.90
2565;DHT22;1292;48.020;7.822;2023-08-07T10:26:08;17.60;99.90
2565;DHT22;1292;48.020;7.822;2023-08-07T10:28:39;17.70;99.90
2565;DHT22;1292;48.020;7.822;2023-08-07T10:31:07;17.80;99.90
2565;DHT22;1292;48.020;7.822;2023-08-07T10:33:36;17.90;99.90
2565;DHT22;1292;48.020;7.822;2023-08-07T10:36:08;18.10;99.90
2565;DHT22;1292;48.020;7.822;2023-08-07T10:38:37;18.20;99.90
2565;DHT22;1292;48.020;7.822;2023-08-07T10:41:06;18.10;99.90
2565;DHT22;1292;48.020;7.822;2023-08-07T10:43:37;18.20;99.90
2565;DHT22;1292;48.020;7.822;2023-08-07T10:46:04;18.10;99.90
2565;DHT22;1292;48.020;7.822;2023-08-07T10:48:38;18.20;99.90
2565;DHT22;1292;48.020;7.822;2023-08-07T10:51:05;18.20;99.90
2565;DHT22;1292;48.020;7.822;2023-08-07T10:53:34;18.10;99.90
2565;DHT22;1292;48.020;7.822;2023-08-07T10:56:03;18.10;99.90
2565;DHT22;1292;48.020;7.822;2023-08-07T10:58:34;18.30;99.90
2565;DHT22;1292;48.020;7.822;2023-08-07T11:01:18;18.60;99.90
2565;DHT22;1292;48.020;7.822;2023-08-07T11:03:48;18.60;99.90
2565;DHT22;1292;48.020;7.822;2023-08-07T11:06:15;18.60;99.90
2565;DHT22;1292;48.020;7.822;2023-08-07T11:08:42;18.60;99.90
2565;DHT22;1292;48.020;7.822;2023-08-07T11:11:10;18.70;99.90
2565;DHT22;1292;48.020;7.822;2023-08-07T11:13:37;18.70;99.90
2565;DHT22;1292;48.020;7.822;2023-08-07T11:16:04;18.80;99.90
2565;DHT22;1292;48.020;7.822;2023-08-07T11:18:32;18.70;99.90
2565;DHT22;1292;48.020;7.822;2023-08-07T11:21:01;18.90;99.90
2565;DHT22;1292;48.020;7.822;2023-08-07T11:23:28;19.10;99.90
2565;DHT22;1292;48.020;7.822;2023-08-07T11:25:55;19.00;99.90
2565;DHT22;1292;48.020;7.822;2023-08-07T11:28:24;19.10;99.90
2565;DHT22;1292;48.020;7.822;2023-08-07T11:30:52;19.00;99.90
2565;DHT22;1292;48.020;7.822;2023-08-07T11:33:21;19.00;99.90
2565;DHT22;1292;48.020;7.822;2023-08-07T11:35:48;18.70;99.90
2565;DHT22;1292;48.020;7.822;2023-08-07T11:38:29;18.90;99.90
2565;DHT22;1292;48.020;7.822;2023-08-07T11:40:57;18.70;99.90
2565;DHT22;1292;48.020;7.822;2023-08-07T11:43:27;18.70;99.90
2565;DHT22;1292;48.020;7.822;2023-08-07T11:45:55;18.60;99.90
2565;DHT22;1292;48.020;7.822;2023-08-07T11:48:24;18.70;99.90
2565;DHT22;1292;48.020;7.822;2023-08-07T11:50:52;18.70;99.90
2565;DHT22;1292;48.020;7.822;2023-08-07T11:53:19;18.70;99.90
2565;DHT22;1292;48.020;7.822;2023-08-07T11:55:47;18.70;99.90
2565;DHT22;1292;48.020;7.822;2023-08-07T11:58:14;18.80;99.90
2565;DHT22;1292;48.020;7.822;2023-08-07T12:00:44;18.70;99.90
2565;DHT22;1292;48.020;7.822;2023-08-07T12:03:25;18.80;99.90
2565;DHT22;1292;48.020;7.822;2023-08-07T12:05:52;19.10;99.90
2565;DHT22;1292;48.020;7.822;2023-08-07T12:08:19;19.30;99.90
2565;DHT22;1292;48.020;7.822;2023-08-07T12:10:49;19.30;99.90
2565;DHT22;1292;48.020;7.822;2023-08-07T12:13:19;19.20;99.90
2565;DHT22;1292;48.020;7.822;2023-08-07T12:15:51;19.20;99.90
2565;DHT22;1292;48.020;7.822;2023-08-07T12:18:18;19.30;99.90
2565;DHT22;1292;48.020;7.822;2023-08-07T12:20:45;19.30;99.90
2565;DHT22;1292;48.020;7.822;2023-08-07T12:23:14;19.30;99.90
2565;DHT22;1292;48.020;7.822;2023-08-07T12:25:41;19.10;99.90
2565;DHT22;1292;48.020;7.822;2023-08-07T12:28:08;19.10;99.90
2565;DHT22;1292;48.020;7.822;2023-08-07T12:30:36;18.90;99.90
2565;DHT22;1292;48.020;7.822;2023-08-07T12:33:05;19.00;99.90
2565;DHT22;1292;48.020;7.822;2023-08-07T12:35:33;18.90;99.90
2565;DHT22;1292;48.020;7.822;2023-08-07T12:38:00;19.20;99.90
2565;DHT22;1292;48.020;7.822;2023-08-07T12:40:28;19.30;99.90
2565;DHT22;1292;48.020;7.822;2023-08-07T12:42:55;19.40;99.90
2565;DHT22;1292;48.020;7.822;2023-08-07T12:45:23;19.40;99.90
2565;DHT22;1292;48.020;7.822;2023-08-07T12:47:50;19.50;99.90
2565;DHT22;1292;48.020;7.822;2023-08-07T12:50:18;19.50;99.90
2565;DHT22;1292;48.020;7.822;2023-08-07T12:52:45;19.60;99.90
2565;DHT22;1292;48.020;7.822;2023-08-07T12:55:12;19.70;99.90
2565;DHT22;1292;48.020;7.822;2023-08-07T12:57:40;19.90;99.90
2565;DHT22;1292;48.020;7.822;2023-08-07T13:00:08;20.00;99.90
2565;DHT22;1292;48.020;7.822;2023-08-07T13:02:38;20.20;99.90
2565;DHT22;1292;48.020;7.822;2023-08-07T13:05:05;20.20;99.90
2565;DHT22;1292;48.020;7.822;2023-08-07T13:07:33;20.40;99.90
2565;DHT22;1292;48.020;7.822;2023-08-07T13:10:00;20.60;99.90
2565;DHT22;1292;48.020;7.822;2023-08-07T13:12:27;20.50;99.90
2565;DHT22;1292;48.020;7.822;2023-08-07T13:14:53;20.30;99.90
2565;DHT22;1292;48.020;7.822;2023-08-07T13:17:20;20.10;99.90
2565;DHT22;1292;48.020;7.822;2023-08-07T13:19:47;20.00;99.90
2565;DHT22;1292;48.020;7.822;2023-08-07T13:22:14;19.90;99.90
2565;DHT22;1292;48.020;7.822;2023-08-07T13:24:42;19.80;99.90
2565;DHT22;1292;48.020;7.822;2023-08-07T13:27:09;19.70;99.90
2565;DHT22;1292;48.020;7.822;2023-08-07T13:29:36;19.60;99.90
2565;DHT22;1292;48.020;7.822;2023-08-07T13:32:03;19.50;99.90
2565;DHT22;1292;48.020;7.822;2023-08-07T13:34:35;19.40;99.90
2565;DHT22;1292;48.020;7.822;2023-08-07T13:37:02;19.60;99.90
2565;DHT22;1292;48.020;7.822;2023-08-07T13:39:29;19.90;99.90
2565;DHT22;1292;48.020;7.822;2023-08-07T13:41:57;20.20;99.90
2565;DHT22;1292;48.020;7.822;2023-08-07T13:44:25;20.50;99.90
2565;DHT22;1292;48.020;7.822;2023-08-07T13:46:52;20.70;99.90
2565;DHT22;1292;48.020;7.822;2023-08-07T13:49:19;20.90;99.90
2565;DHT22;1292;48.020;7.822;2023-08-07T13:51:47;20.90;99.90
2565;DHT22;1292;48.020;7.822;2023-08-07T13:54:13;20.80;99.90
2565;DHT22;1292;48.020;7.822;2023-08-07T13:56:40;20.60;99.90
2565;DHT22;1292;48.020;7.822;2023-08-07T13:59:09;20.50;99.90
2565;DHT22;1292;48.020;7.822;2023-08-07T14:01:35;20.30;99.90
2565;DHT22;1292;48.020;7.822;2023-08-07T14:04:03;20.20;99.90
2565;DHT22;1292;48.020;7.822;2023-08-07T14:06:29;20.20;99.90
2565;DHT22;1292;48.020;7.822;2023-08-07T14:08:56;20.20;99.90
2565;DHT22;1292;48.020;7.822;2023-08-07T14:11:23;20.30;99.90
2565;DHT22;1292;48.020;7.822;2023-08-07T14:13:55;20.30;99.90
2565;DHT22;1292;48.020;7.822;2023-08-07T14:16:24;20.20;99.90
2565;DHT22;1292;48.020;7.822;2023-08-07T14:18:52;20.30;99.90
2565;DHT22;1292;48.020;7.822;2023-08-07T14:21:19;20.60;99.90
2565;DHT22;1292;48.020;7.822;2023-08-07T14:23:46;20.70;99.90
2565;DHT22;1292;48.020;7.822;2023-08-07T14:26:14;20.60;99.90
2565;DHT22;1292;48.020;7.822;2023-08-07T14:28:43;20.70;99.90
2565;DHT22;1292;48.020;7.822;2023-08-07T14:31:10;21.00;99.90
2565;DHT22;1292;48.020;7.822;2023-08-07T14:33:38;21.10;99.90
2565;DHT22;1292;48.020;7.822;2023-08-07T14:36:05;21.40;99.90
2565;DHT22;1292;48.020;7.822;2023-08-07T14:38:32;21.50;99.90
2565;DHT22;1292;48.020;7.822;2023-08-07T14:40:59;21.60;99.90
2565;DHT22;1292;48.020;7.822;2023-08-07T14:43:29;21.70;99.90
2565;DHT22;1292;48.020;7.822;2023-08-07T14:45:56;21.80;99.90
2565;DHT22;1292;48.020;7.822;2023-08-07T14:48:23;21.80;99.90
2565;DHT22;1292;48.020;7.822;2023-08-07T14:50:51;21.90;99.90
2565;DHT22;1292;48.020;7.822;2023-08-07T14:53:18;21.90;99.90
2565;DHT22;1292;48.020;7.822;2023-08-07T14:55:45;21.90;99.90
2565;DHT22;1292;48.020;7.822;2023-08-07T14:58:12;22.00;99.90
2565;DHT22;1292;48.020;7.822;2023-08-07T15:00:39;22.00;99.90
2565;DHT22;1292;48.020;7.822;2023-08-07T15:03:05;21.90;99.90
2565;DHT22;1292;48.020;7.822;2023-08-07T15:05:32;21.60;99.90
2565;DHT22;1292;48.020;7.822;2023-08-07T15:08:01;21.30;99.90
2565;DHT22;1292;48.020;7.822;2023-08-07T15:10:28;21.30;99.90
2565;DHT22;1292;48.020;7.822;2023-08-07T15:12:55;21.20;99.90
2565;DHT22;1292;48.020;7.822;2023-08-07T15:15:23;21.00;99.90
2565;DHT22;1292;48.020;7.822;2023-08-07T15:17:49;20.90;99.90
2565;DHT22;1292;48.020;7.822;2023-08-07T15:20:16;20.90;99.90
2565;DHT22;1292;48.020;7.822;2023-08-07T15:22:45;20.90;99.90
2565;DHT22;1292;48.020;7.822;2023-08-07T15:25:14;20.70;99.90
2565;DHT22;1292;48.020;7.822;2023-08-07T15:27:41;20.70;99.90
2565;DHT22;1292;48.020;7.822;2023-08-07T15:30:09;20.70;99.90
2565;DHT22;1292;48.020;7.822;2023-08-07T15:32:36;20.70;99.90
2565;DHT22;1292;48.020;7.822;2023-08-07T15:35:04;20.80;99.90
2565;DHT22;1292;48.020;7.822;2023-08-07T15:37:31;20.80;99.90
2565;DHT22;1292;48.020;7.822;2023-08-07T15:39:58;20.70;99.90
2565;DHT22;1292;48.020;7.822;2023-08-07T15:42:26;20.60;99.90
2565;DHT22;1292;48.020;7.822;2023-08-07T15:44:53;20.80;99.90
2565;DHT22;1292;48.020;7.822;2023-08-07T15:47:20;21.00;99.90
2565;DHT22;1292;48.020;7.822;2023-08-07T15:49:46;21.10;99.90
2565;DHT22;1292;48.020;7.822;2023-08-07T15:52:14;21.30;99.90
2565;DHT22;1292;48.020;7.822;2023-08-07T15:54:41;21.40;99.90
2565;DHT22;1292;48.020;7.822;2023-08-07T15:57:08;21.40;99.90
2565;DHT22;1292;48.020;7.822;2023-08-07T15:59:37;21.40;99.90
2565;DHT22;1292;48.020;7.822;2023-08-07T16:02:04;21.20;99.90
2565;DHT22;1292;48.020;7.822;2023-08-07T16:04:32;21.20;99.90
2565;DHT22;1292;48.020;7.822;2023-08-07T16:06:59;21.10;99.90
2565;DHT22;1292;48.020;7.822;2023-08-07T16:09:25;21.00;99.90
2565;DHT22;1292;48.020;7.822;2023-08-07T16:11:53;21.00;99.90
2565;DHT22;1292;48.020;7.822;2023-08-07T16:14:19;20.90;99.90
2565;DHT22;1292;48.020;7.822;2023-08-07T16:16:50;20.90;99.90
2565;DHT22;1292;48.020;7.822;2023-08-07T16:19:17;20.90;99.90
2565;DHT22;1292;48.020;7.822;2023-08-07T16:21:44;20.80;99.90
2565;DHT22;1292;48.020;7.822;2023-08-07T16:24:11;20.80;99.90
2565;DHT22;1292;48.020;7.822;2023-08-07T16:26:38;20.90;99.90
2565;DHT22;1292;48.020;7.822;2023-08-07T16:29:05;20.90;99.90
2565;DHT22;1292;48.020;7.822;2023-08-07T16:31:32;20.90;99.90
2565;DHT22;1292;48.020;7.822;2023-08-07T16:34:00;20.80;99.90
2565;DHT22;1292;48.020;7.822;2023-08-07T16:36:27;20.70;99.90
2565;DHT22;1292;48.020;7.822;2023-08-07T16:38:54;20.60;99.90
2565;DHT22;1292;48.020;7.822;2023-08-07T16:41:22;20.50;99.90
2565;DHT22;1292;48.020;7.822;2023-08-07T16:43:49;20.40;99.90
2565;DHT22;1292;48.020;7.822;2023-08-07T16:46:16;20.30;99.90
2565;DHT22;1292;48.020;7.822;2023-08-07T16:48:43;20.20;99.90
2565;DHT22;1292;48.020;7.822;2023-08-07T16:51:13;20.10;99.90
2565;DHT22;1292;48.020;7.822;2023-08-07T16:53:40;20.10;99.90
2565;DHT22;1292;48.020;7.822;2023-08-07T16:56:07;20.00;99.90
2565;DHT22;1292;48.020;7.822;2023-08-07T16:58:33;19.90;99.90
2565;DHT22;1292;48.020;7.822;2023-08-07T17:01:00;19.90;99.90
2565;DHT22;1292;48.020;7.822;2023-08-07T17:03:27;19.90;99.90
2565;DHT22;1292;48.020;7.822;2023-08-07T17:05:54;19.90;99.90
2565;DHT22;1292;48.020;7.822;2023-08-07T17:08:23;19.90;99.90
2565;DHT22;1292;48.020;7.822;2023-08-07T17:10:50;19.90;99.90
2565;DHT22;1292;48.020;7.822;2023-08-07T17:13:16;19.90;99.90
2565;DHT22;1292;48.020;7.822;2023-08-07T17:15:43;19.90;99.90
2565;DHT22;1292;48.020;7.822;2023-08-07T17:18:10;19.90;99.90
2565;DHT22;1292;48.020;7.822;2023-08-07T17:20:37;19.90;99.90
2565;DHT22;1292;48.020;7.822;2023-08-07T17:23:04;19.90;99.90
2565;DHT22;1292;48.020;7.822;2023-08-07T17:25:32;19.80;99.90
2565;DHT22;1292;48.020;7.822;2023-08-07T17:27:59;19.80;99.90
2565;DHT22;1292;48.020;7.822;2023-08-07T17:30:26;19.80;99.90
2565;DHT22;1292;48.020;7.822;2023-08-07T17:32:52;19.80;99.90
2565;DHT22;1292;48.020;7.822;2023-08-07T17:35:19;19.70;99.90
2565;DHT22;1292;48.020;7.822;2023-08-07T17:37:47;19.70;99.90
2565;DHT22;1292;48.020;7.822;2023-08-07T17:40:14;19.70;99.90
2565;DHT22;1292;48.020;7.822;2023-08-07T17:42:43;19.60;99.90
2565;DHT22;1292;48.020;7.822;2023-08-07T17:45:10;19.60;99.90
2565;DHT22;1292;48.020;7.822;2023-08-07T17:47:36;19.60;99.90
2565;DHT22;1292;48.020;7.822;2023-08-07T17:50:04;19.60;99.90
2565;DHT22;1292;48.020;7.822;2023-08-07T17:52:35;19.60;99.90
2565;DHT22;1292;48.020;7.822;2023-08-07T17:55:02;19.60;99.90
2565;DHT22;1292;48.020;7.822;2023-08-07T17:57:29;19.60;99.90
2565;DHT22;1292;48.020;7.822;2023-08-07T17:59:57;19.50;99.90
2565;DHT22;1292;48.020;7.822;2023-08-07T18:02:24;19.50;99.90
2565;DHT22;1292;48.020;7.822;2023-08-07T18:04:51;19.50;99.90
2565;DHT22;1292;48.020;7.822;2023-08-07T18:07:18;19.50;99.90
2565;DHT22;1292;48.020;7.822;2023-08-07T18:09:44;19.50;99.90
2565;DHT22;1292;48.020;7.822;2023-08-07T18:12:11;19.50;99.90
2565;DHT22;1292;48.020;7.822;2023-08-07T18:14:38;19.50;99.90
2565;DHT22;1292;48.020;7.822;2023-08-07T18:17:06;19.50;99.90
2565;DHT22;1292;48.020;7.822;2023-08-07T18:19:33;19.50;99.90
2565;DHT22;1292;48.020;7.822;2023-08-07T18:22:00;19.50;99.90
2565;DHT22;1292;48.020;7.822;2023-08-07T18:24:27;19.40;99.90
2565;DHT22;1292;48.020;7.822;2023-08-07T18:26:54;19.30;99.90
2565;DHT22;1292;48.020;7.822;2023-08-07T18:29:21;19.30;99.90
2565;DHT22;1292;48.020;7.822;2023-08-07T18:31:48;19.20;99.90
2565;DHT22;1292;48.020;7.822;2023-08-07T18:34:16;19.20;99.90
2565;DHT22;1292;48.020;7.822;2023-08-07T18:36:43;19.10;99.90
2565;DHT22;1292;48.020;7.822;2023-08-07T18:39:12;19.10;99.90
2565;DHT22;1292;48.020;7.822;2023-08-07T18:41:38;19.10;99.90
2565;DHT22;1292;48.020;7.822;2023-08-07T18:44:05;19.10;99.90
2565;DHT22;1292;48.020;7.822;2023-08-07T18:46:32;19.00;99.90
2565;DHT22;1292;48.020;7.822;2023-08-07T18:48:59;19.00;99.90
2565;DHT22;1292;48.020;7.822;2023-08-07T18:51:27;18.90;99.90
2565;DHT22;1292;48.020;7.822;2023-08-07T18:53:55;18.90;99.90
2565;DHT22;1292;48.020;7.822;2023-08-07T18:56:22;18.90;99.90
2565;DHT22;1292;48.020;7.822;2023-08-07T18:58:49;18.80;99.90
2565;DHT22;1292;48.020;7.822;2023-08-07T19:01:17;18.80;99.90
2565;DHT22;1292;48.020;7.822;2023-08-07T19:03:44;18.80;99.90
2565;DHT22;1292;48.020;7.822;2023-08-07T19:06:11;18.80;99.90
2565;DHT22;1292;48.020;7.822;2023-08-07T19:08:39;18.70;99.90
2565;DHT22;1292;48.020;7.822;2023-08-07T19:11:06;18.80;99.90
2565;DHT22;1292;48.020;7.822;2023-08-07T19:13:33;18.70;99.90
2565;DHT22;1292;48.020;7.822;2023-08-07T19:16:02;18.60;99.90
2565;DHT22;1292;48.020;7.822;2023-08-07T19:18:28;18.60;99.90
2565;DHT22;1292;48.020;7.822;2023-08-07T19:20:56;18.60;99.90
2565;DHT22;1292;48.020;7.822;2023-08-07T19:23:23;18.50;99.90
2565;DHT22;1292;48.020;7.822;2023-08-07T19:25:51;18.50;99.90
2565;DHT22;1292;48.020;7.822;2023-08-07T19:28:18;18.40;99.90
2565;DHT22;1292;48.020;7.822;2023-08-07T19:30:45;18.40;99.90
2565;DHT22;1292;48.020;7.822;2023-08-07T19:33:11;18.30;99.90
2565;DHT22;1292;48.020;7.822;2023-08-07T19:35:38;18.30;99.90
2565;DHT22;1292;48.020;7.822;2023-08-07T19:38:05;18.20;99.90
2565;DHT22;1292;48.020;7.822;2023-08-07T19:40:32;18.10;99.90
2565;DHT22;1292;48.020;7.822;2023-08-07T19:43:00;18.00;99.90
2565;DHT22;1292;48.020;7.822;2023-08-07T19:45:27;18.00;99.90
2565;DHT22;1292;48.020;7.822;2023-08-07T19:47:54;17.90;99.90
2565;DHT22;1292;48.020;7.822;2023-08-07T19:50:23;17.80;99.90
2565;DHT22;1292;48.020;7.822;2023-08-07T19:52:50;17.80;99.90
2565;DHT22;1292;48.020;7.822;2023-08-07T19:55:17;17.70;99.90
2565;DHT22;1292;48.020;7.822;2023-08-07T19:57:43;17.70;99.90
2565;DHT22;1292;48.020;7.822;2023-08-07T20:00:13;17.70;99.90
2565;DHT22;1292;48.020;7.822;2023-08-07T20:02:40;17.60;99.90
2565;DHT22;1292;48.020;7.822;2023-08-07T20:05:07;17.50;99.90
2565;DHT22;1292;48.020;7.822;2023-08-07T20:07:34;17.50;99.90
2565;DHT22;1292;48.020;7.822;2023-08-07T20:10:01;17.50;99.90
2565;DHT22;1292;48.020;7.822;2023-08-07T20:12:30;17.40;99.90
2565;DHT22;1292;48.020;7.822;2023-08-07T20:14:57;17.40;99.90
2565;DHT22;1292;48.020;7.822;2023-08-07T20:17:25;17.40;99.90
2565;DHT22;1292;48.020;7.822;2023-08-07T20:19:52;17.40;99.90
2565;DHT22;1292;48.020;7.822;2023-08-07T20:22:19;17.40;99.90
2565;DHT22;1292;48.020;7.822;2023-08-07T20:24:46;17.40;99.90
2565;DHT22;1292;48.020;7.822;2023-08-07T20:27:12;17.40;99.90
2565;DHT22;1292;48.020;7.822;2023-08-07T20:29:39;17.30;99.90
2565;DHT22;1292;48.020;7.822;2023-08-07T20:32:07;17.30;99.90
2565;DHT22;1292;48.020;7.822;2023-08-07T20:34:35;17.30;99.90
2565;DHT22;1292;48.020;7.822;2023-08-07T20:37:02;17.00;99.90
2565;DHT22;1292;48.020;7.822;2023-08-07T20:39:29;16.70;99.90
2565;DHT22;1292;48.020;7.822;2023-08-07T20:41:56;16.60;99.90
2565;DHT22;1292;48.020;7.822;2023-08-07T20:44:23;16.50;99.90
2565;DHT22;1292;48.020;7.822;2023-08-07T20:46:50;16.50;99.90
2565;DHT22;1292;48.020;7.822;2023-08-07T20:49:17;16.40;99.90
2565;DHT22;1292;48.020;7.822;2023-08-07T20:51:46;16.40;99.90
2565;DHT22;1292;48.020;7.822;2023-08-07T20:54:13;16.40;99.90
2565;DHT22;1292;48.020;7.822;2023-08-07T20:56:40;16.40;99.90
2565;DHT22;1292;48.020;7.822;2023-08-07T20:59:06;16.40;99.90
2565;DHT22;1292;48.020;7.822;2023-08-07T21:01:33;16.40;99.90
2565;DHT22;1292;48.020;7.822;2023-08-07T21:04:00;16.50;99.90
2565;DHT22;1292;48.020;7.822;2023-08-07T21:06:27;16.50;99.90
2565;DHT22;1292;48.020;7.822;2023-08-07T21:08:55;16.70;99.90
2565;DHT22;1292;48.020;7.822;2023-08-07T21:11:22;16.70;99.90
2565;DHT22;1292;48.020;7.822;2023-08-07T21:13:53;16.80;99.90
2565;DHT22;1292;48.020;7.822;2023-08-07T21:16:20;16.90;99.90
2565;DHT22;1292;48.020;7.822;2023-08-07T21:18:48;17.00;99.90
2565;DHT22;1292;48.020;7.822;2023-08-07T21:21:15;17.00;99.90
2565;DHT22;1292;48.020;7.822;2023-08-07T21:23:42;17.00;99.90
2565;DHT22;1292;48.020;7.822;2023-08-07T21:26:10;17.00;99.90
2565;DHT22;1292;48.020;7.822;2023-08-07T21:28:37;17.10;99.90
2565;DHT22;1292;48.020;7.822;2023-08-07T21:31:04;17.10;99.90
2565;DHT22;1292;48.020;7.822;2023-08-07T21:33:32;17.10;99.90
2565;DHT22;1292;48.020;7.822;2023-08-07T21:35:59;17.10;99.90
2565;DHT22;1292;48.020;7.822;2023-08-07T21:38:25;17.10;99.90
